• Join FlightAware (Why Join?)
  • Login
  • US Flag 
01:03AM EDT


 

Airport Tracker/Info


-or-


 

Live Flight TrackerFlight Track Log ✈ AWE1511 ✈ 26-Jun-2013 ✈ KPHX - KIND

Flight Track Log - Related Links

Times and Time Zones

All times are in EDT time to prevent confusion due to time zone crossing. See the AWE1511 flight status page for this flight to view local times or setup timezone preferences in your user account.

Time Position Orientation Groundspeed Altitude Reporting Facility
EDT Latitude Longitude Course Direction KTS MPH feet Rate Location/Type
02:50AM 33.4333 -112.0333 270° West 175 201 2,000  Level Phoenix TRACON
02:51AM 33.4333 -112.0667 270° West 162 186 2,900 1,200 Climbing Phoenix TRACON
02:52AM 33.4333 -112.1167 270° West 208 239 3,700 840 Climbing Phoenix TRACON
02:53AM 33.4608 -112.1597 307° West 248 285 4,500 1,620 Climbing Albuquerque Center
02:54AM 33.5081 -112.0978 48° Northeast 281 323 6,800 2,100 Climbing Albuquerque Center
02:55AM 33.5347 -112.0086 70° East 287 330 8,800 1,860 Climbing Albuquerque Center
02:56AM 33.5642 -111.9153 69° East 300 345 10,600 1,380 Climbing Albuquerque Center
02:57AM 33.6042 -111.7894 69° East 343 395 11,700 1,560 Climbing Albuquerque Center
02:58AM 33.6408 -111.6758 69° East 366 421 13,800 1,800 Climbing Albuquerque Center
02:59AM 33.6767 -111.5631 69° East 366 421 15,400 1,560 Climbing Albuquerque Center
03:00AM 33.7131 -111.4464 69° East 375 432 17,000 1,320 Climbing Albuquerque Center
03:01AM 33.7581 -111.3281 65° Northeast 391 450 18,100 1,320 Climbing Albuquerque Center
03:02AM 33.8028 -111.2081 66° East 397 457 19,700 1,380 Climbing Albuquerque Center
03:03AM 33.8478 -111.0831 67° East 409 471 21,000 1,200 Climbing Albuquerque Center
03:04AM 33.8944 -110.9572 66° East 414 476 22,200 1,200 Climbing Albuquerque Center
03:05AM 33.9419 -110.8281 66° East 420 483 23,500 1,140 Climbing Albuquerque Center
03:06AM 33.9900 -110.6983 66° East 424 488 24,500 1,020 Climbing Albuquerque Center
03:07AM 34.0439 -110.5500 66° East 431 496 25,600 1,020 Climbing Albuquerque Center
03:08AM 34.0939 -110.4158 66° East 438 504 26,600 960 Climbing Albuquerque Center
03:09AM 34.1419 -110.2797 67° East 442 509 27,600 840 Climbing Albuquerque Center
03:11AM 34.2141 -110.0607 67° East  Level FlightAware Approximate
03:12AM 34.2953 -109.8519 67° East 457 526 30,200  Level Albuquerque Center
03:13AM 34.3514 -109.6931 67° East 460 529 31,100 780 Climbing Albuquerque Center
03:14AM 34.4000 -109.5572 67° East 460 529 31,800 840 Climbing Albuquerque Center
03:15AM 34.4483 -109.4206 67° East 462 532 32,800 780 Climbing Albuquerque Center
03:16AM 34.4881 -109.3058 67° East 462 532 33,400 780 Climbing Albuquerque Center
03:17AM 34.5519 -109.1228 67° East 463 533 34,400 900 Climbing Albuquerque Center
03:18AM 34.5986 -108.9894 67° East 456 525 35,300 780 Climbing Albuquerque Center
03:19AM 34.6536 -108.8325 67° East 453 521 36,000 540 Climbing Albuquerque Center
03:20AM 34.7003 -108.6978 67° East 453 521 36,500 420 Climbing Albuquerque Center
03:21AM 34.7456 -108.5614 68° East 454 522 36,900 240 Climbing Albuquerque Center
03:22AM 34.7936 -108.4222 67° East 455 524 37,000  Climbing Albuquerque Center
03:23AM 34.8458 -108.2700 67° East 451 519 37,000  Level Albuquerque Center
03:24AM 34.8919 -108.1322 68° East 457 526 37,000  Level Albuquerque Center
03:25AM 34.9381 -107.9953 68° East 458 527 37,000  Level Albuquerque Center
03:26AM 34.9919 -107.8361 68° East 456 525 37,000  Level Albuquerque Center
03:27AM 35.0350 -107.7067 68° East 460 529 37,000  Level Albuquerque Center
03:28AM 35.0831 -107.5628 68° East 458 527 37,000  Level Albuquerque Center
03:29AM 35.1303 -107.4183 68° East 458 527 37,000  Level Albuquerque Center
03:30AM 35.1786 -107.2731 68° East 459 528 37,000  Level Albuquerque Center
03:31AM 35.2283 -107.1214 68° East 462 532 37,000  Level Albuquerque Center
03:32AM 35.2806 -106.9608 68° East 457 526 37,000  Level Albuquerque Center
03:33AM 35.3250 -106.8239 68° East 453 521 37,000  Level Albuquerque Center
03:34AM 35.3697 -106.6875 68° East 452 520 37,000  Level Albuquerque Center
03:35AM 35.4175 -106.5417 68° East 459 528 37,000  Level Albuquerque Center
03:36AM 35.4631 -106.3992 69° East 452 520 37,000  Level Albuquerque Center
03:37AM 35.5083 -106.2567 69° East 450 518 37,100  Climbing Albuquerque Center
03:38AM 35.5528 -106.1156 69° East 445 512 37,000 -120 Descending Albuquerque Center
03:39AM 35.5958 -105.9758 69° East 440 506 36,900  Descending Albuquerque Center
03:40AM 35.6433 -105.8283 68° East 441 507 37,000  Climbing Albuquerque Center
03:41AM 35.6850 -105.6928 69° East 444 511 37,000  Level Albuquerque Center
03:42AM 35.7319 -105.5383 69° East 449 517 37,100  Climbing Albuquerque Center
03:43AM 35.7750 -105.3947 70° East 444 511 37,100 -60 Level Albuquerque Center
03:44AM 35.8197 -105.2522 69° East 443 510 37,000 -60 Descending Albuquerque Center
03:45AM 35.8614 -105.1122 70° East 434 499 37,000  Level Albuquerque Center
03:46AM 35.9064 -104.9683 69° East 439 505 37,000  Level Albuquerque Center
03:47AM 35.9481 -104.8267 70° East 436 502 37,000  Level Albuquerque Center
03:48AM 35.9908 -104.6867 69° East 432 497 37,000  Level Albuquerque Center
03:49AM 36.0331 -104.5425 70° East 438 504 37,000  Level Albuquerque Center
03:50AM 36.0761 -104.3994 70° East 438 504 37,000  Level Albuquerque Center
03:51AM 36.1186 -104.2542 70° East 443 510 37,000  Level Albuquerque Center
03:52AM 36.1622 -104.1100 69° East 442 509 37,100  Climbing Albuquerque Center
03:53AM 36.2044 -103.9667 70° East 439 505 37,000 -60 Descending Albuquerque Center
03:54AM 36.2467 -103.8242 70° East 438 504 37,000  Level Albuquerque Center
03:55AM 36.2878 -103.6825 70° East 435 501 37,000  Level Albuquerque Center
03:56AM 36.3214 -103.5628 71° East 436 502 37,000  Level Albuquerque Center
03:57AM 36.3631 -103.4183 70° East 438 504 37,000  Level Albuquerque Center
03:58AM 36.4044 -103.2767 70° East 436 502 37,000  Level Albuquerque Center
03:59AM 36.4447 -103.1322 71° East 437 503 37,000  Level Albuquerque Center
04:00AM 36.4856 -102.9872 71° East 439 505 37,000  Level Albuquerque Center
04:01AM 36.5283 -102.8347 71° East 437 503 37,000  Level Albuquerque Center
04:02AM 36.5672 -102.6922 71° East 435 501 37,000  Level Albuquerque Center
04:03AM 36.6081 -102.5514 70° East 434 499 37,000  Level Albuquerque Center
04:04AM 36.6458 -102.4086 72° East 435 501 37,000  Level Albuquerque Center
04:05AM 36.6861 -102.2672 70° East 433 498 37,000  Level Albuquerque Center
04:06AM 36.7247 -102.1258 71° East 433 498 37,000  Level Albuquerque Center
04:07AM 36.7617 -101.9883 71° East 436 502 37,000  Level Albuquerque Center
04:08AM 36.8050 -101.8292 71° East 436 502 37,000  Level Albuquerque Center
04:09AM 36.8428 -101.6914 71° East 437 503 37,000  Level Albuquerque Center
04:10AM 36.8733 -101.5756 72° East 440 506 37,000  Level Kansas City Center
04:11AM 36.9106 -101.4367 71° East 441 507 37,000  Level Kansas City Center
04:12AM 36.9467 -101.2989 72° East 440 506 37,000  Level Kansas City Center
04:13AM 36.9897 -101.1358 72° East 442 509 37,000  Level Kansas City Center
04:14AM 37.0258 -100.9969 72° East 441 507 37,000  Level Kansas City Center
04:15AM 37.0617 -100.8594 72° East 438 504 37,000  Level Kansas City Center
04:16AM 37.1033 -100.6964 72° East 441 507 37,000  Level Kansas City Center
04:17AM 37.1394 -100.5578 72° East 441 507 37,000  Level Kansas City Center
04:18AM 37.1761 -100.4189 72° East 441 507 37,000  Level Kansas City Center
04:19AM 37.2175 -100.2558 72° East 441 507 37,000  Level Kansas City Center
04:20AM 37.2528 -100.1150 72° East 443 510 37,000  Level Kansas City Center
04:21AM 37.2883 -99.9744 72° East 444 511 37,000  Level Kansas City Center
04:22AM 37.3286 -99.8128 73° East 438 504 37,000  Level Kansas City Center
04:23AM 37.3642 -99.6739 72° East 437 503 37,000  Level Kansas City Center
04:24AM 37.3986 -99.5342 73° East 438 504 37,000  Level Kansas City Center
04:25AM 37.4367 -99.3800 73° East 438 504 37,000  Level Kansas City Center
04:26AM 37.4736 -99.2331 72° East 440 506 37,000  Level Kansas City Center
04:27AM 37.5086 -99.0858 73° East 440 506 37,000  Level Kansas City Center
04:28AM 37.5436 -98.9383 73° East 441 507 37,000  Level Kansas City Center
04:29AM 37.5789 -98.7906 73° East 441 507 37,000  Level Kansas City Center
04:30AM 37.6139 -98.6433 73° East 441 507 37,000  Level Kansas City Center
04:31AM 37.6500 -98.4958 73° East 441 507 37,000  Level Kansas City Center
04:32AM 37.6858 -98.3486 73° East 441 507 37,000  Level Kansas City Center
04:33AM 37.7200 -98.2022 74° East 436 502 37,000  Level Kansas City Center
04:34AM 37.7556 -98.0417 74° East 434 499 37,000  Level Kansas City Center
04:35AM 37.7881 -97.8911 75° East 440 506 37,000  Level Kansas City Center
04:36AM 37.8208 -97.7361 75° East 452 520 37,000  Level Kansas City Center
04:37AM 37.8572 -97.5878 73° East 443 510 37,000  Level Kansas City Center
04:38AM 37.8939 -97.4356 73° East 441 507 37,000  Level Kansas City Center
04:39AM 37.9286 -97.2853 74° East 445 512 37,000  Level Kansas City Center
04:40AM 37.9622 -97.1342 74° East 447 514 37,000  Level Kansas City Center
04:41AM 37.9961 -96.9836 74° East 445 512 37,000  Level Kansas City Center
04:42AM 38.0303 -96.8308 74° East 448 516 37,000  Level Kansas City Center
04:43AM 38.0628 -96.6786 75° East 449 517 37,000  Level Kansas City Center
04:44AM 38.0967 -96.5272 74° East 448 516 37,000  Level Kansas City Center
04:45AM 38.1294 -96.3753 75° East 447 514 37,000  Level Kansas City Center
04:46AM 38.1619 -96.2236 75° East 446 513 37,000  Level Kansas City Center
04:47AM 38.1969 -96.0597 75° East 440 506 37,000  Level Kansas City Center
04:48AM 38.2278 -95.9133 75° East 447 514 37,000  Level Kansas City Center
04:49AM 38.2642 -95.7419 75° East 451 519 37,000  Level Kansas City Center
04:50AM 38.2953 -95.5947 75° East 451 519 37,000  Level Kansas City Center
04:51AM 38.3258 -95.4464 75° East 453 521 37,000  Level Kansas City Center
04:52AM 38.3617 -95.2753 75° East 451 519 37,000  Level Kansas City Center
04:53AM 38.3917 -95.1267 76° East 452 520 37,000  Level Kansas City Center
04:55AM 38.4217 -94.9789 75° East 452 520 37,000  Level Kansas City Center
04:56AM 38.4564 -94.8083 75° East 448 516 37,000  Level Kansas City Center
04:57AM 38.4861 -94.6600 76° East 451 519 37,000  Level Kansas City Center
04:58AM 38.5158 -94.5122 76° East 451 519 37,000  Level Kansas City Center
04:59AM 38.5500 -94.3389 76° East 452 520 37,000  Level Kansas City Center
05:00AM 38.5792 -94.1889 76° East 455 524 37,000  Level Kansas City Center
05:01AM 38.6083 -94.0394 76° East 454 522 37,000  Level Kansas City Center
05:02AM 38.6414 -93.8642 76° East 455 524 37,000  Level Kansas City Center
05:03AM 38.6711 -93.7139 76° East 452 520 37,000  Level Kansas City Center
05:04AM 38.7006 -93.5553 77° East 455 524 37,000  Level Kansas City Center
05:05AM 38.7314 -93.3958 76° East 458 527 37,000  Level Kansas City Center
05:06AM 38.7608 -93.2358 77° East 459 528 37,000  Level Kansas City Center
05:07AM 38.7903 -93.0778 77° East 457 526 37,000  Level Kansas City Center
05:08AM 38.8197 -92.9183 77° East 457 526 37,000  Level Kansas City Center
05:09AM 38.8489 -92.7561 77° East 460 529 37,000  Level Kansas City Center
05:10AM 38.8775 -92.5933 77° East 464 534 37,000  Level Kansas City Center
05:11AM 38.9069 -92.4300 77° East 466 536 37,000  Level Kansas City Center
05:12AM 38.9358 -92.2683 77° East 465 535 37,000  Level Kansas City Center
05:13AM 38.9647 -92.1069 77° East 463 533 37,000  Level Kansas City Center
05:14AM 38.9928 -91.9431 78° East 464 534 37,000  Level Kansas City Center
05:15AM 39.0192 -91.7792 78° East 467 537 37,000  Level Kansas City Center
05:16AM 39.0472 -91.6233 77° East 465 535 37,000  Level Kansas City Center
05:17AM 39.0747 -91.4597 78° East 467 537 37,000  Level Kansas City Center
05:18AM 39.1019 -91.2978 78° East 465 535 37,000  Level Kansas City Center
05:19AM 39.1286 -91.1356 78° East 464 534 37,000  Level Kansas City Center
05:20AM 39.1567 -90.9739 77° East 463 533 37,000  Level Kansas City Center
05:21AM 39.1836 -90.8094 78° East 466 536 37,000  Level Kansas City Center
05:22AM 39.2103 -90.6447 78° East 467 537 37,000  Level Kansas City Center
05:23AM 39.2367 -90.4783 78° East 469 540 37,000  Level Kansas City Center
05:24AM 39.2628 -90.3119 78° East 471 542 37,000  Level Kansas City Center
05:25AM 39.2886 -90.1469 79° East 470 541 37,000  Level Kansas City Center
05:26AM 39.3139 -89.9814 79° East 470 541 37,000  Level Kansas City Center
05:27AM 39.3386 -89.8175 79° East 466 536 37,000  Level Kansas City Center
05:28AM 39.3689 -89.6194 79° East 467 537 37,000 -360 Level Kansas City Center
05:29AM 39.3942 -89.4553 79° East 467 537 36,300 -900 Descending Kansas City Center
05:30AM 39.4189 -89.2922 79° East 465 535 35,300 -900 Descending Kansas City Center
05:31AM 39.4386 -89.1525 80° East 466 536 34,500 -900 Descending Kansas City Center
05:32AM 39.4631 -88.9856 79° East 471 542 33,500 -1,140 Descending Kansas City Center
05:33AM 39.4933 -88.7817 79° East 482 555 32,300 -1,140 Descending Kansas City Center
05:34AM 39.5172 -88.6111 80° East 483 556 31,300 -960 Descending Kansas City Center
05:35AM 39.5422 -88.4483 79° East 477 549 30,400 -960 Descending Kansas City Center
05:36AM 39.5656 -88.2772 80° East 478 550 29,400 -1,020 Descending Kansas City Center
05:37AM 39.5897 -88.1067 80° East 477 549 28,400 -1,020 Descending Kansas City Center
05:38AM 39.6053 -87.9933 80° East 472 543 27,700 -1,140 Descending Indianapolis Center
05:39AM 39.6264 -87.8328 80° East 460 529 26,400 -2,880 Descending Indianapolis Center
05:40AM 39.6478 -87.6767 80° East 444 511 21,900 -4,020 Descending Indianapolis Center
05:41AM 39.6703 -87.5081 80° East 467 537 18,400 -3,060 Descending Indianapolis Center
05:42AM 39.6911 -87.3464 80° East 461 531 15,800 -2,460 Descending Indianapolis Center
05:43AM 39.7111 -87.1983 80° East 429 494 13,400 -1,860 Descending Indianapolis Center
05:44AM 39.7297 -87.0553 80° East 410 472 12,100 -720 Descending Indianapolis Center
05:45AM 39.7472 -86.9056 81° East 359 413 12,000 -600 Descending Indianapolis Center
05:46AM 39.7628 -86.7908 80° East 332 382 10,900 -1,380 Descending Indianapolis Center
05:47AM 39.7761 -86.6814 81° East 311 358 9,300 -1,680 Descending Indianapolis Center
05:48AM 39.7900 -86.5717 81° East 309 356 7,600 -1,620 Descending Indianapolis Center
05:49AM 39.8033 -86.4631 81° East 305 351 6,100 -1,500 Descending Indianapolis Center
05:50AM 39.8175 -86.3561 80° East 301 346 4,600 -1,380 Descending Indianapolis Center
05:51AM 39.8569 -86.2697 59° Northeast 281 323 3,300 -840 Descending Indianapolis Center
05:52AM 39.8719 -86.1861 77° East 261 300 3,000 -300 Descending Indianapolis Center